createdAt,value
2022-10-18T00:00:46.233Z,58.58
2022-10-18T00:03:15.493Z,59.05
2022-10-18T00:05:46.464Z,59.01
2022-10-18T00:08:16.484Z,58.97
2022-10-18T00:10:45.243Z,58.76
2022-10-18T00:13:17.294Z,59.19
2022-10-18T00:15:51.254Z,59.17
2022-10-18T00:18:20.455Z,58.69
2022-10-18T00:21:00.316Z,58.85
2022-10-18T00:23:30.304Z,59.04
2022-10-18T00:26:05.034Z,59.00
2022-10-18T00:28:35.045Z,59.12
2022-10-18T00:31:15.157Z,58.70
2022-10-18T00:33:44.424Z,58.93
2022-10-18T00:36:16.593Z,59.07
2022-10-18T00:38:45.794Z,58.89
2022-10-18T00:41:16.074Z,58.79
2022-10-18T00:43:59.916Z,59.09
2022-10-18T00:46:30.753Z,59.08
2022-10-18T00:49:02.004Z,59.16
2022-10-18T00:51:37.635Z,59.05
2022-10-18T00:54:06.654Z,58.26
2022-10-18T00:56:36.076Z,58.62
2022-10-18T00:59:05.003Z,58.92
2022-10-18T01:01:34.076Z,58.70
2022-10-18T01:04:03.064Z,58.86
2022-10-18T01:06:34.203Z,58.97
2022-10-18T01:09:16.384Z,59.06
2022-10-18T01:11:59.864Z,59.05
2022-10-18T01:14:39.844Z,59.21
2022-10-18T01:17:13.554Z,59.21
2022-10-18T01:20:20.224Z,59.01
2022-10-18T01:23:00.743Z,58.82
2022-10-18T01:25:42.103Z,59.11
2022-10-18T01:28:26.709Z,59.16
2022-10-18T01:31:01.524Z,59.03
2022-10-18T01:33:39.714Z,58.83
2022-10-18T01:36:15.813Z,58.89
2022-10-18T01:38:46.554Z,59.24
2022-10-18T01:41:17.423Z,59.05
2022-10-18T01:43:49.599Z,58.72
2022-10-18T01:46:23.403Z,58.83
2022-10-18T01:48:53.576Z,58.53
2022-10-18T01:51:27.613Z,58.77
2022-10-18T01:53:56.367Z,58.80
2022-10-18T01:56:35.684Z,58.93
2022-10-18T01:59:14.889Z,58.91
2022-10-18T02:01:55.383Z,59.29
2022-10-18T02:04:35.554Z,59.04
2022-10-18T02:07:11.303Z,59.03
2022-10-18T02:09:42.933Z,59.08
2022-10-18T02:12:15.045Z,59.15
2022-10-18T02:14:45.466Z,58.91
2022-10-18T02:17:17.664Z,58.85
2022-10-18T02:19:51.303Z,58.42
2022-10-18T02:22:21.804Z,58.79
2022-10-18T02:24:53.157Z,58.97
2022-10-18T02:27:22.115Z,58.76
2022-10-18T02:29:51.614Z,58.97
2022-10-18T02:32:27.777Z,58.99
2022-10-18T02:35:02.273Z,58.32
2022-10-18T02:37:35.493Z,58.95
2022-10-18T02:40:06.554Z,58.60
2022-10-18T02:42:37.223Z,58.52
2022-10-18T02:45:07.690Z,59.25
2022-10-18T02:47:37.795Z,58.43
2022-10-18T02:50:07.216Z,58.93
2022-10-18T02:52:36.105Z,58.75
2022-10-18T02:55:05.366Z,58.82
2022-10-18T02:57:34.340Z,58.95
2022-10-18T03:00:03.266Z,58.99
2022-10-18T03:02:31.864Z,58.83
2022-10-18T03:05:01.969Z,59.27
2022-10-18T03:07:30.823Z,59.39
2022-10-18T03:09:59.774Z,59.18
2022-10-18T03:12:28.804Z,59.37
2022-10-18T03:14:57.427Z,59.51
2022-10-18T03:17:26.054Z,59.21
2022-10-18T03:19:54.654Z,59.41
2022-10-18T03:22:25.576Z,59.24
2022-10-18T03:24:54.384Z,59.75
2022-10-18T03:27:23.144Z,59.41
2022-10-18T03:29:51.725Z,59.35
2022-10-18T03:32:20.464Z,59.35
2022-10-18T03:34:49.006Z,59.50
2022-10-18T03:37:17.774Z,59.39
2022-10-18T03:39:48.046Z,59.74
2022-10-18T03:42:16.556Z,59.79
2022-10-18T03:44:45.084Z,59.45
2022-10-18T03:47:14.545Z,59.82
2022-10-18T03:49:43.125Z,60.15
2022-10-18T03:52:11.766Z,59.88
2022-10-18T03:54:40.445Z,59.83
2022-10-18T03:57:13.655Z,59.83
2022-10-18T03:59:42.304Z,60.28
2022-10-18T04:02:12.294Z,59.70
2022-10-18T04:04:41.014Z,60.07
2022-10-18T04:07:09.766Z,60.04
2022-10-18T04:09:38.344Z,60.17
2022-10-18T04:12:07.344Z,59.82
2022-10-18T04:14:38.567Z,60.08
2022-10-18T04:17:07.066Z,60.06
2022-10-18T04:19:35.764Z,60.23
2022-10-18T04:22:04.674Z,60.13
2022-10-18T04:24:33.264Z,60.21
2022-10-18T04:27:01.901Z,60.13
2022-10-18T04:29:30.555Z,60.15
2022-10-18T04:32:00.904Z,60.22
2022-10-18T04:34:29.622Z,60.76
2022-10-18T04:36:58.415Z,60.44
2022-10-18T04:39:27.044Z,60.29
2022-10-18T04:41:55.705Z,60.50
2022-10-18T04:44:24.354Z,60.37
2022-10-18T04:46:52.955Z,60.44
2022-10-18T04:49:23.054Z,60.44
2022-10-18T04:51:51.666Z,60.35
2022-10-18T04:54:21.860Z,60.29
2022-10-18T04:56:52.624Z,60.50
2022-10-18T04:59:25.974Z,60.40
2022-10-18T05:01:54.964Z,60.30
2022-10-18T05:04:25.157Z,60.29
2022-10-18T05:06:55.764Z,60.47
2022-10-18T05:09:25.006Z,60.39
2022-10-18T05:11:53.584Z,60.75
2022-10-18T05:14:22.235Z,60.55
2022-10-18T05:16:50.844Z,60.22
2022-10-18T05:19:19.784Z,60.36
2022-10-18T05:21:49.924Z,60.04
2022-10-18T05:24:18.494Z,59.92
2022-10-18T05:26:47.244Z,60.17
2022-10-18T05:29:16.448Z,60.30
2022-10-18T05:31:45.186Z,60.16
2022-10-18T05:34:13.724Z,60.58
2022-10-18T05:36:43.965Z,60.26
2022-10-18T05:39:14.042Z,60.30
2022-10-18T05:41:42.605Z,60.32
2022-10-18T05:44:11.615Z,60.27
2022-10-18T05:46:42.725Z,60.37
2022-10-18T05:49:13.010Z,60.27
2022-10-18T05:51:41.637Z,60.42
2022-10-18T05:54:15.395Z,60.31
2022-10-18T05:56:45.520Z,59.48
2022-10-18T05:59:14.209Z,59.58
2022-10-18T06:01:44.239Z,59.67
2022-10-18T06:04:12.939Z,60.12
2022-10-18T06:06:42.030Z,60.28
2022-10-18T06:09:11.443Z,60.58
2022-10-18T06:11:40.017Z,60.69
2022-10-18T06:14:11.251Z,60.47
2022-10-18T06:16:39.943Z,60.48
2022-10-18T06:19:08.469Z,60.43
2022-10-18T06:21:37.039Z,60.47
2022-10-18T06:24:05.809Z,60.25
2022-10-18T06:26:34.391Z,60.68
2022-10-18T06:29:05.395Z,60.45
2022-10-18T06:31:35.992Z,60.47
2022-10-18T06:34:05.080Z,60.27
2022-10-18T06:36:33.670Z,60.47
2022-10-18T06:39:02.931Z,60.36
2022-10-18T06:41:31.530Z,60.50
2022-10-18T06:44:03.729Z,60.15
2022-10-18T06:46:32.230Z,59.91
2022-10-18T06:49:02.110Z,60.12
2022-10-18T06:51:31.386Z,61.04
2022-10-18T06:54:16.889Z,61.17
2022-10-18T06:56:46.552Z,60.39
2022-10-18T06:59:15.590Z,60.96
2022-10-18T07:01:44.806Z,60.27
2022-10-18T07:04:15.289Z,60.37
2022-10-18T07:06:43.860Z,60.98
2022-10-18T07:09:12.440Z,61.11
2022-10-18T07:11:41.109Z,61.47
2022-10-18T07:14:15.350Z,60.95
2022-10-18T07:16:44.821Z,60.33
2022-10-18T07:19:15.486Z,60.68
2022-10-18T07:21:44.010Z,60.37
2022-10-18T07:24:12.599Z,60.68
2022-10-18T07:26:42.674Z,60.24
2022-10-18T07:29:13.460Z,61.50
2022-10-18T07:31:42.369Z,60.43
2022-10-18T07:34:13.459Z,60.73
2022-10-18T07:36:43.640Z,61.32
2022-10-18T07:39:12.159Z,61.76
2022-10-18T07:41:40.751Z,61.94
2022-10-18T07:44:09.559Z,62.02
2022-10-18T07:46:38.109Z,61.63
2022-10-18T07:49:06.701Z,61.13
2022-10-18T07:51:36.309Z,61.21
2022-10-18T07:54:06.849Z,61.15
2022-10-18T07:56:35.909Z,61.46
2022-10-18T07:59:09.834Z,61.56
2022-10-18T08:01:41.134Z,61.45
2022-10-18T08:04:13.977Z,61.28
2022-10-18T08:06:44.879Z,61.05
2022-10-18T08:09:15.419Z,61.17
2022-10-18T08:11:46.208Z,61.44
2022-10-18T08:14:17.061Z,61.16
2022-10-18T08:16:45.819Z,61.33
2022-10-18T08:19:14.979Z,60.32
2022-10-18T08:21:43.489Z,61.19
2022-10-18T08:24:12.009Z,60.82
2022-10-18T08:26:42.132Z,60.69
2022-10-18T08:29:31.679Z,60.64
2022-10-18T08:32:00.950Z,60.51
2022-10-18T08:34:29.689Z,60.10
2022-10-18T08:36:58.280Z,60.18
2022-10-18T08:39:27.481Z,59.81
2022-10-18T08:42:37.089Z,59.81
2022-10-18T08:45:13.016Z,60.58
2022-10-18T08:47:52.379Z,59.89
2022-10-18T08:50:24.089Z,60.32
2022-10-18T08:52:56.070Z,60.00
2022-10-18T08:55:31.462Z,59.91
2022-10-18T08:58:02.178Z,59.43
2022-10-18T09:00:35.815Z,60.16
2022-10-18T09:03:18.172Z,59.81
2022-10-18T09:05:52.038Z,59.92
2022-10-18T09:08:39.530Z,59.18
2022-10-18T09:11:17.880Z,58.93
2022-10-18T09:14:05.143Z,59.86
2022-10-18T09:16:47.499Z,59.74
2022-10-18T09:19:30.510Z,59.90
2022-10-18T09:22:07.474Z,59.81
2022-10-18T09:24:42.319Z,59.83
2022-10-18T09:27:17.810Z,60.25
2022-10-18T09:29:59.018Z,59.90
2022-10-18T09:32:40.669Z,60.20
2022-10-18T09:35:19.169Z,59.78
2022-10-18T09:37:49.089Z,60.42
2022-10-18T09:40:20.942Z,60.14
2022-10-18T09:42:56.249Z,59.96
2022-10-18T09:45:31.230Z,60.10
2022-10-18T09:48:06.795Z,60.09
2022-10-18T09:50:39.839Z,60.00
2022-10-18T09:53:19.262Z,60.71
2022-10-18T09:56:02.382Z,60.13
2022-10-18T09:58:47.956Z,60.93
2022-10-18T10:01:21.655Z,60.57
2022-10-18T10:03:50.354Z,60.38
2022-10-18T10:06:25.569Z,60.41
2022-10-18T10:09:01.581Z,59.94
2022-10-18T10:11:41.690Z,60.74
2022-10-18T10:16:55.230Z,60.34
2022-10-18T10:19:30.360Z,60.74
2022-10-18T10:22:07.589Z,59.92
2022-10-18T10:24:45.112Z,60.53
2022-10-18T10:27:21.270Z,59.82
2022-10-18T10:29:54.138Z,60.17
2022-10-18T10:35:00.529Z,59.58
2022-10-18T10:37:39.533Z,60.62
2022-10-18T10:40:30.450Z,59.59
2022-10-18T10:43:33.100Z,60.69
2022-10-18T10:46:08.339Z,60.12
2022-10-18T10:48:50.018Z,60.63
2022-10-18T10:51:30.400Z,60.17
2022-10-18T10:54:04.785Z,60.34
2022-10-18T10:56:35.319Z,60.18
2022-10-18T10:59:14.996Z,60.12
2022-10-18T11:01:43.974Z,60.62
2022-10-18T11:04:32.040Z,60.22
2022-10-18T11:07:14.644Z,60.38
2022-10-18T11:09:53.269Z,59.97
2022-10-18T11:12:30.645Z,59.73
2022-10-18T11:15:10.246Z,60.74
2022-10-18T11:17:46.485Z,60.46
2022-10-18T11:20:30.884Z,60.40
2022-10-18T11:23:02.509Z,59.92
2022-10-18T11:26:04.051Z,60.31
2022-10-18T11:28:56.859Z,60.07
2022-10-18T11:31:31.400Z,59.74
2022-10-18T11:34:16.339Z,59.79
2022-10-18T11:37:25.952Z,59.54
2022-10-18T11:39:59.179Z,59.46
2022-10-18T11:42:39.700Z,59.88
2022-10-18T11:45:23.077Z,59.92
2022-10-18T11:48:00.159Z,60.32
2022-10-18T11:50:36.440Z,59.85
2022-10-18T11:53:19.159Z,59.74
2022-10-18T11:56:02.419Z,59.55
2022-10-18T11:58:46.020Z,60.19
2022-10-18T12:01:26.121Z,59.83
2022-10-18T12:04:04.490Z,60.12
2022-10-18T12:06:36.804Z,59.92
2022-10-18T12:09:16.179Z,60.31
2022-10-18T12:11:54.875Z,60.07
2022-10-18T12:14:29.213Z,59.85
2022-10-18T12:17:35.939Z,59.47
2022-10-18T12:19:56.031Z,59.61
2022-10-18T12:22:30.012Z,59.77
2022-10-18T12:25:00.159Z,59.96
2022-10-18T12:27:38.070Z,59.62
2022-10-18T12:30:15.749Z,59.70
2022-10-18T12:32:56.488Z,59.84
2022-10-18T12:35:44.059Z,59.66
2022-10-18T12:38:21.329Z,60.02
2022-10-18T12:40:54.399Z,59.91
2022-10-18T12:43:26.379Z,60.07
2022-10-18T12:45:57.599Z,59.97
2022-10-18T12:48:33.420Z,59.77
2022-10-18T12:51:07.489Z,59.81
2022-10-18T12:53:36.860Z,59.92
2022-10-18T12:56:38.314Z,60.01
2022-10-18T12:59:45.209Z,59.58
2022-10-18T13:02:27.181Z,59.63
2022-10-18T13:07:45.049Z,59.73
2022-10-18T13:10:40.389Z,59.64
2022-10-18T13:13:41.913Z,59.35
2022-10-18T13:16:35.510Z,59.91
2022-10-18T13:19:20.248Z,59.84
2022-10-18T13:21:58.289Z,59.67
2022-10-18T13:24:35.479Z,59.38
2022-10-18T13:27:34.857Z,58.96
2022-10-18T13:30:28.799Z,59.10
2022-10-18T13:33:06.609Z,59.00
2022-10-18T13:35:56.269Z,58.89
2022-10-18T13:38:49.739Z,59.29
2022-10-18T13:41:21.013Z,58.68
2022-10-18T13:44:20.349Z,59.69
2022-10-18T13:47:15.929Z,59.79
2022-10-18T13:49:59.292Z,59.48
2022-10-18T13:52:38.783Z,59.81
2022-10-18T13:55:31.089Z,59.52
2022-10-18T13:58:09.341Z,59.68
2022-10-18T14:00:52.557Z,57.86
2022-10-18T14:04:07.230Z,58.74
2022-10-18T14:06:37.949Z,58.67
2022-10-18T14:09:25.522Z,58.60
2022-10-18T14:11:56.949Z,59.00
2022-10-18T14:14:35.331Z,59.16
2022-10-18T14:17:18.049Z,59.41
2022-10-18T14:19:55.302Z,59.33
2022-10-18T14:22:26.802Z,59.26
2022-10-18T14:24:57.089Z,59.85
2022-10-18T14:27:27.560Z,59.98
2022-10-18T14:30:11.389Z,59.87
2022-10-18T14:32:44.159Z,59.86
2022-10-18T14:35:32.115Z,59.79
2022-10-18T14:38:02.266Z,59.53
2022-10-18T14:40:34.830Z,59.76
2022-10-18T14:43:05.400Z,60.00
2022-10-18T14:45:33.829Z,59.87
2022-10-18T14:48:17.239Z,59.96
2022-10-18T14:50:50.821Z,59.63
2022-10-18T14:53:22.260Z,59.80
2022-10-18T14:55:58.050Z,59.66
2022-10-18T14:58:26.670Z,59.64
2022-10-18T15:00:55.648Z,59.94
2022-10-18T15:03:25.169Z,59.69
2022-10-18T15:05:57.920Z,59.56
2022-10-18T15:08:28.482Z,59.37
2022-10-18T15:10:59.530Z,59.46
2022-10-18T15:13:28.469Z,59.66
2022-10-18T15:15:57.484Z,59.32
2022-10-18T15:18:28.262Z,59.31
2022-10-18T15:21:11.899Z,59.49
2022-10-18T15:23:40.380Z,59.75
2022-10-18T15:26:14.019Z,59.43
2022-10-18T15:28:50.505Z,59.01
2022-10-18T15:31:26.039Z,58.59
2022-10-18T15:33:56.119Z,58.74
2022-10-18T15:36:33.369Z,58.91
2022-10-18T15:39:17.659Z,59.18
2022-10-18T15:41:51.344Z,59.00
2022-10-18T15:44:24.600Z,58.61
2022-10-18T15:46:54.739Z,58.84
2022-10-18T15:49:55.590Z,58.38
2022-10-18T15:52:39.336Z,57.74
2022-10-18T15:55:50.909Z,57.89
2022-10-18T15:58:22.934Z,58.08
2022-10-18T16:00:52.699Z,58.95
2022-10-18T16:03:24.178Z,59.12
2022-10-18T16:05:57.562Z,58.96
2022-10-18T16:08:30.731Z,59.09
2022-10-18T16:11:00.226Z,59.16
2022-10-18T16:13:29.248Z,59.13
2022-10-18T16:15:59.733Z,59.08
2022-10-18T16:18:28.824Z,59.24
2022-10-18T16:20:58.099Z,59.16
2022-10-18T16:23:29.866Z,58.78
2022-10-18T16:25:59.020Z,58.71
2022-10-18T16:28:28.389Z,59.24
2022-10-18T16:30:59.074Z,58.90
2022-10-18T16:33:28.339Z,58.72
2022-10-18T16:35:56.910Z,58.87
2022-10-18T16:38:34.265Z,58.67
2022-10-18T16:41:04.901Z,59.10
2022-10-18T16:43:34.971Z,59.11
2022-10-18T16:46:04.909Z,59.23
2022-10-18T16:48:33.890Z,58.82
2022-10-18T16:51:05.731Z,59.18
2022-10-18T16:53:35.757Z,59.15
2022-10-18T16:56:07.681Z,59.14
2022-10-18T16:58:36.249Z,59.15
2022-10-18T17:01:08.022Z,58.98
2022-10-18T17:03:37.708Z,59.28
2022-10-18T17:06:07.980Z,58.85
2022-10-18T17:08:38.849Z,59.41
2022-10-18T17:11:07.589Z,59.08
2022-10-18T17:13:36.180Z,59.30
2022-10-18T17:16:05.719Z,59.33
2022-10-18T17:18:34.399Z,59.69
2022-10-18T17:21:03.430Z,59.40
2022-10-18T17:23:32.481Z,59.15
2022-10-18T17:26:21.933Z,59.30
2022-10-18T17:28:52.778Z,58.45
2022-10-18T17:31:21.479Z,58.07
2022-10-18T17:33:50.470Z,58.04
2022-10-18T17:36:19.260Z,57.65
2022-10-18T17:38:48.605Z,57.80
2022-10-18T17:41:18.759Z,58.03
2022-10-18T17:43:48.514Z,58.19
2022-10-18T17:46:18.192Z,57.81
2022-10-18T17:48:47.389Z,57.77
2022-10-18T17:51:18.754Z,58.38
2022-10-18T17:53:47.511Z,58.48
2022-10-18T17:56:18.435Z,57.89
2022-10-18T17:58:47.460Z,58.65
2022-10-18T18:01:18.302Z,58.18
2022-10-18T18:03:48.119Z,57.95
2022-10-18T18:06:18.869Z,57.73
2022-10-18T18:08:48.299Z,57.88
2022-10-18T18:11:19.480Z,58.43
2022-10-18T18:13:48.189Z,58.89
2022-10-18T18:16:18.779Z,58.43
2022-10-18T18:18:48.629Z,59.36
2022-10-18T18:21:17.710Z,58.52
2022-10-18T18:23:46.399Z,58.20
2022-10-18T18:26:15.049Z,58.70
2022-10-18T18:28:49.620Z,58.63
2022-10-18T18:31:23.730Z,58.96
2022-10-18T18:33:53.700Z,58.43
2022-10-18T18:36:23.459Z,58.27
2022-10-18T18:38:56.840Z,58.57
2022-10-18T18:41:27.560Z,58.83
2022-10-18T18:43:59.521Z,58.60
2022-10-18T18:46:30.899Z,57.75
2022-10-18T18:49:00.145Z,57.52
2022-10-18T18:51:28.849Z,57.78
2022-10-18T18:53:57.439Z,57.80
2022-10-18T18:56:29.289Z,57.33
2022-10-18T18:59:00.580Z,58.32
2022-10-18T19:01:31.411Z,58.00
2022-10-18T19:04:01.245Z,58.20
2022-10-18T19:06:31.900Z,57.89
2022-10-18T19:09:05.404Z,57.52
2022-10-18T19:11:36.759Z,57.62
2022-10-18T19:14:07.764Z,58.10
2022-10-18T19:16:38.094Z,57.58
2022-10-18T19:19:08.252Z,57.49
2022-10-18T19:21:41.043Z,58.18
2022-10-18T19:24:10.018Z,57.95
2022-10-18T19:26:45.290Z,57.95
2022-10-18T19:29:18.319Z,56.89
2022-10-18T19:31:50.211Z,56.69
2022-10-18T19:34:20.461Z,56.64
2022-10-18T19:36:50.509Z,56.69
2022-10-18T19:39:23.252Z,56.75
2022-10-18T19:41:55.514Z,57.27
2022-10-18T19:44:27.680Z,56.54
2022-10-18T19:46:56.489Z,56.69
2022-10-18T19:49:25.150Z,57.07
2022-10-18T19:51:59.739Z,57.99
2022-10-18T19:54:29.139Z,58.15
2022-10-18T19:56:57.914Z,58.51
2022-10-18T19:59:28.161Z,57.01
2022-10-18T20:01:57.101Z,57.20
2022-10-18T20:04:26.119Z,57.27
2022-10-18T20:06:54.850Z,58.11
2022-10-18T20:09:33.982Z,58.02
2022-10-18T20:12:02.680Z,57.28
2022-10-18T20:14:33.520Z,57.16
2022-10-18T20:17:02.160Z,56.50
2022-10-18T20:19:33.250Z,57.11
2022-10-18T20:22:01.869Z,56.56
2022-10-18T20:24:30.730Z,56.89
2022-10-18T20:26:59.470Z,56.01
2022-10-18T20:29:28.390Z,57.17
2022-10-18T20:31:58.550Z,57.10
2022-10-18T20:34:28.809Z,57.25
2022-10-18T20:36:57.439Z,56.02
2022-10-18T20:39:26.364Z,56.50
2022-10-18T20:41:54.979Z,56.61
2022-10-18T20:44:25.605Z,56.54
2022-10-18T20:46:54.431Z,57.38
2022-10-18T20:49:24.479Z,57.64
2022-10-18T20:51:53.159Z,57.84
2022-10-18T20:54:21.800Z,58.00
2022-10-18T20:56:51.279Z,57.31
2022-10-18T20:59:20.000Z,56.98
2022-10-18T21:01:49.190Z,57.33
2022-10-18T21:04:17.819Z,57.30
2022-10-18T21:06:47.799Z,57.26
2022-10-18T21:09:18.654Z,57.37
2022-10-18T21:11:52.532Z,56.74
2022-10-18T21:14:22.839Z,56.80
2022-10-18T21:16:53.279Z,56.29
2022-10-18T21:19:23.939Z,56.34
2022-10-18T21:21:56.114Z,57.03
2022-10-18T21:24:26.376Z,56.40
2022-10-18T21:26:56.029Z,56.82
2022-10-18T21:29:27.279Z,56.77
2022-10-18T21:31:59.511Z,56.68
2022-10-18T21:34:28.476Z,56.38
2022-10-18T21:36:58.404Z,56.64
2022-10-18T21:39:27.155Z,56.93
2022-10-18T21:41:55.879Z,57.10
2022-10-18T21:44:24.719Z,57.71
2022-10-18T21:46:53.240Z,57.22
2022-10-18T21:49:25.217Z,57.15
2022-10-18T21:51:53.820Z,56.89
2022-10-18T21:54:24.949Z,56.99
2022-10-18T21:56:53.464Z,58.42
2022-10-18T21:59:22.114Z,57.42
2022-10-18T22:01:50.599Z,57.84
2022-10-18T22:04:27.061Z,57.15
2022-10-18T22:06:55.559Z,57.63
2022-10-18T22:09:26.355Z,58.39
2022-10-18T22:12:01.314Z,58.69
2022-10-18T22:14:30.109Z,58.57
2022-10-18T22:16:58.689Z,58.80
2022-10-18T22:19:27.339Z,58.62
2022-10-18T22:21:56.140Z,58.59
2022-10-18T22:24:26.280Z,58.37
2022-10-18T22:26:58.044Z,58.61
2022-10-18T22:29:26.569Z,58.95
2022-10-18T22:31:55.939Z,58.74
2022-10-18T22:34:27.786Z,58.06
2022-10-18T22:36:59.491Z,57.47
2022-10-18T22:39:29.454Z,58.05
2022-10-18T22:41:57.924Z,57.07
2022-10-18T22:44:26.841Z,57.64
2022-10-18T22:46:55.389Z,57.59
2022-10-18T22:49:23.850Z,57.34
2022-10-18T22:51:52.464Z,57.20
2022-10-18T22:54:21.473Z,57.96
2022-10-18T22:56:51.620Z,58.03
2022-10-18T22:59:20.315Z,57.73
2022-10-18T23:01:48.949Z,57.87
2022-10-18T23:04:17.539Z,58.01
2022-10-18T23:06:46.230Z,58.18
2022-10-18T23:09:15.119Z,58.31
2022-10-18T23:11:43.864Z,57.83
2022-10-18T23:14:16.639Z,58.09
2022-10-18T23:16:45.267Z,58.37
2022-10-18T23:19:16.979Z,58.37
2022-10-18T23:21:45.571Z,58.56
2022-10-18T23:24:14.350Z,58.69
2022-10-18T23:26:42.910Z,59.13
2022-10-18T23:29:11.828Z,58.74
2022-10-18T23:31:44.859Z,58.55
2022-10-18T23:34:13.610Z,58.63
2022-10-18T23:36:42.208Z,58.99
2022-10-18T23:39:11.824Z,58.43
2022-10-18T23:41:40.473Z,58.93
2022-10-18T23:44:11.072Z,59.03
2022-10-18T23:46:39.699Z,59.14
2022-10-18T23:49:09.724Z,58.82
2022-10-18T23:51:38.389Z,59.06
2022-10-18T23:54:06.914Z,59.50
2022-10-18T23:56:35.519Z,58.94
2022-10-18T23:59:04.091Z,59.58
